sensor_id;sensor_type;location;lat;lon;timestamp;P1;durP1;ratioP1;P2;durP2;ratioP2
60169;SDS011;46042;49.444;6.862;2022-12-18T00:02:11;3.63;;;2.67;;
60169;SDS011;46042;49.444;6.862;2022-12-18T00:04:38;3.67;;;1.93;;
60169;SDS011;46042;49.444;6.862;2022-12-18T00:07:05;6.63;;;2.50;;
60169;SDS011;46042;49.444;6.862;2022-12-18T00:09:32;4.47;;;2.80;;
60169;SDS011;46042;49.444;6.862;2022-12-18T00:12:05;8.57;;;4.23;;
60169;SDS011;46042;49.444;6.862;2022-12-18T00:14:41;4.77;;;2.73;;
60169;SDS011;46042;49.444;6.862;2022-12-18T00:17:10;6.23;;;4.53;;
60169;SDS011;46042;49.444;6.862;2022-12-18T00:19:37;6.30;;;3.77;;
60169;SDS011;46042;49.444;6.862;2022-12-18T00:22:03;5.33;;;3.13;;
60169;SDS011;46042;49.444;6.862;2022-12-18T00:24:31;8.90;;;3.53;;
60169;SDS011;46042;49.444;6.862;2022-12-18T00:26:57;4.80;;;2.97;;
60169;SDS011;46042;49.444;6.862;2022-12-18T00:29:24;5.07;;;3.40;;
60169;SDS011;46042;49.444;6.862;2022-12-18T00:31:51;10.57;;;3.93;;
60169;SDS011;46042;49.444;6.862;2022-12-18T00:34:17;5.47;;;2.80;;
60169;SDS011;46042;49.444;6.862;2022-12-18T00:36:44;5.20;;;3.33;;
60169;SDS011;46042;49.444;6.862;2022-12-18T00:39:14;5.55;;;2.78;;
60169;SDS011;46042;49.444;6.862;2022-12-18T00:41:40;3.73;;;2.17;;
60169;SDS011;46042;49.444;6.862;2022-12-18T00:44:26;10.97;;;4.10;;
60169;SDS011;46042;49.444;6.862;2022-12-18T00:46:52;8.13;;;3.63;;
60169;SDS011;46042;49.444;6.862;2022-12-18T00:49:19;6.33;;;2.97;;
60169;SDS011;46042;49.444;6.862;2022-12-18T00:51:46;8.23;;;4.50;;
60169;SDS011;46042;49.444;6.862;2022-12-18T00:54:13;5.27;;;3.27;;
60169;SDS011;46042;49.444;6.862;2022-12-18T00:56:40;4.90;;;3.10;;
60169;SDS011;46042;49.444;6.862;2022-12-18T00:59:15;4.53;;;2.83;;
60169;SDS011;46042;49.444;6.862;2022-12-18T01:01:43;5.73;;;3.43;;
60169;SDS011;46042;49.444;6.862;2022-12-18T01:04:10;4.53;;;3.10;;
60169;SDS011;46042;49.444;6.862;2022-12-18T01:06:36;2.23;;;1.90;;
60169;SDS011;46042;49.444;6.862;2022-12-18T01:09:03;4.63;;;2.80;;
60169;SDS011;46042;49.444;6.862;2022-12-18T01:11:30;8.40;;;3.43;;
60169;SDS011;46042;49.444;6.862;2022-12-18T01:13:57;4.13;;;2.83;;
60169;SDS011;46042;49.444;6.862;2022-12-18T01:16:23;7.77;;;3.47;;
60169;SDS011;46042;49.444;6.862;2022-12-18T01:18:51;3.63;;;3.00;;
60169;SDS011;46042;49.444;6.862;2022-12-18T01:21:19;5.40;;;3.87;;
60169;SDS011;46042;49.444;6.862;2022-12-18T01:23:46;6.93;;;3.43;;
60169;SDS011;46042;49.444;6.862;2022-12-18T01:26:16;4.10;;;3.00;;
60169;SDS011;46042;49.444;6.862;2022-12-18T01:28:43;4.70;;;3.30;;
60169;SDS011;46042;49.444;6.862;2022-12-18T01:31:24;9.43;;;4.20;;
60169;SDS011;46042;49.444;6.862;2022-12-18T01:33:53;3.70;;;3.30;;
60169;SDS011;46042;49.444;6.862;2022-12-18T01:36:21;5.60;;;2.27;;
60169;SDS011;46042;49.444;6.862;2022-12-18T01:38:53;5.83;;;3.30;;
60169;SDS011;46042;49.444;6.862;2022-12-18T01:41:24;4.40;;;2.70;;
60169;SDS011;46042;49.444;6.862;2022-12-18T01:43:54;8.13;;;3.07;;
60169;SDS011;46042;49.444;6.862;2022-12-18T01:46:23;11.07;;;4.03;;
60169;SDS011;46042;49.444;6.862;2022-12-18T01:49:01;4.23;;;2.80;;
60169;SDS011;46042;49.444;6.862;2022-12-18T01:51:28;5.13;;;3.13;;
60169;SDS011;46042;49.444;6.862;2022-12-18T01:53:56;7.67;;;3.10;;
60169;SDS011;46042;49.444;6.862;2022-12-18T01:56:25;3.63;;;2.87;;
60169;SDS011;46042;49.444;6.862;2022-12-18T01:59:10;5.37;;;3.93;;
60169;SDS011;46042;49.444;6.862;2022-12-18T02:01:37;5.97;;;3.50;;
60169;SDS011;46042;49.444;6.862;2022-12-18T02:04:23;7.83;;;4.07;;
60169;SDS011;46042;49.444;6.862;2022-12-18T02:12:24;3.00;;;2.07;;
60169;SDS011;46042;49.444;6.862;2022-12-18T02:15:03;6.75;;;2.78;;
60169;SDS011;46042;49.444;6.862;2022-12-18T02:17:36;6.90;;;2.70;;
60169;SDS011;46042;49.444;6.862;2022-12-18T02:27:56;8.97;;;4.00;;
60169;SDS011;46042;49.444;6.862;2022-12-18T02:30:28;5.60;;;4.20;;
60169;SDS011;46042;49.444;6.862;2022-12-18T02:32:59;4.97;;;3.47;;
60169;SDS011;46042;49.444;6.862;2022-12-18T02:35:31;6.33;;;3.10;;
60169;SDS011;46042;49.444;6.862;2022-12-18T02:38:00;6.23;;;3.17;;
60169;SDS011;46042;49.444;6.862;2022-12-18T02:40:29;8.90;;;4.40;;
60169;SDS011;46042;49.444;6.862;2022-12-18T02:43:10;4.07;;;2.67;;
60169;SDS011;46042;49.444;6.862;2022-12-18T02:45:49;8.60;;;4.80;;
60169;SDS011;46042;49.444;6.862;2022-12-18T02:48:22;5.70;;;3.40;;
60169;SDS011;46042;49.444;6.862;2022-12-18T02:51:44;6.63;;;3.80;;
60169;SDS011;46042;49.444;6.862;2022-12-18T02:53:51;5.13;;;3.93;;
60169;SDS011;46042;49.444;6.862;2022-12-18T02:56:45;3.90;;;2.90;;
60169;SDS011;46042;49.444;6.862;2022-12-18T02:59:18;3.73;;;2.23;;
60169;SDS011;46042;49.444;6.862;2022-12-18T03:07:34;8.03;;;4.17;;
60169;SDS011;46042;49.444;6.862;2022-12-18T03:10:04;2.10;;;1.70;;
60169;SDS011;46042;49.444;6.862;2022-12-18T03:12:35;4.13;;;2.08;;
60169;SDS011;46042;49.444;6.862;2022-12-18T03:17:33;4.17;;;2.83;;
60169;SDS011;46042;49.444;6.862;2022-12-18T03:20:03;7.53;;;3.60;;
60169;SDS011;46042;49.444;6.862;2022-12-18T03:22:39;5.93;;;3.33;;
60169;SDS011;46042;49.444;6.862;2022-12-18T03:25:09;5.10;;;3.63;;
60169;SDS011;46042;49.444;6.862;2022-12-18T03:27:40;6.70;;;4.00;;
60169;SDS011;46042;49.444;6.862;2022-12-18T03:30:13;4.17;;;2.57;;
60169;SDS011;46042;49.444;6.862;2022-12-18T03:35:26;6.57;;;3.13;;
60169;SDS011;46042;49.444;6.862;2022-12-18T03:37:57;4.80;;;2.97;;
60169;SDS011;46042;49.444;6.862;2022-12-18T03:40:27;5.50;;;3.43;;
60169;SDS011;46042;49.444;6.862;2022-12-18T03:43:08;10.50;;;3.17;;
60169;SDS011;46042;49.444;6.862;2022-12-18T03:45:48;4.10;;;2.83;;
60169;SDS011;46042;49.444;6.862;2022-12-18T03:50:57;7.37;;;3.40;;
60169;SDS011;46042;49.444;6.862;2022-12-18T03:56:00;8.23;;;4.63;;
60169;SDS011;46042;49.444;6.862;2022-12-18T03:58:30;6.03;;;3.53;;
60169;SDS011;46042;49.444;6.862;2022-12-18T04:01:00;6.88;;;2.83;;
60169;SDS011;46042;49.444;6.862;2022-12-18T04:03:29;7.20;;;3.97;;
60169;SDS011;46042;49.444;6.862;2022-12-18T04:05:58;8.60;;;4.17;;
60169;SDS011;46042;49.444;6.862;2022-12-18T04:08:27;5.70;;;3.87;;
60169;SDS011;46042;49.444;6.862;2022-12-18T04:10:54;7.00;;;4.10;;
60169;SDS011;46042;49.444;6.862;2022-12-18T04:13:22;4.93;;;3.00;;
60169;SDS011;46042;49.444;6.862;2022-12-18T04:15:49;4.60;;;3.37;;
60169;SDS011;46042;49.444;6.862;2022-12-18T04:18:16;7.63;;;2.73;;
60169;SDS011;46042;49.444;6.862;2022-12-18T04:20:42;7.67;;;4.07;;
60169;SDS011;46042;49.444;6.862;2022-12-18T04:23:09;6.70;;;4.10;;
60169;SDS011;46042;49.444;6.862;2022-12-18T04:25:36;7.80;;;2.80;;
60169;SDS011;46042;49.444;6.862;2022-12-18T04:28:02;7.57;;;3.53;;
60169;SDS011;46042;49.444;6.862;2022-12-18T04:30:29;9.43;;;4.47;;
60169;SDS011;46042;49.444;6.862;2022-12-18T04:32:56;6.23;;;3.57;;
60169;SDS011;46042;49.444;6.862;2022-12-18T04:35:22;6.27;;;3.73;;
60169;SDS011;46042;49.444;6.862;2022-12-18T04:37:49;4.97;;;3.33;;
60169;SDS011;46042;49.444;6.862;2022-12-18T04:40:17;6.50;;;4.47;;
60169;SDS011;46042;49.444;6.862;2022-12-18T04:42:43;7.37;;;3.97;;
60169;SDS011;46042;49.444;6.862;2022-12-18T04:45:10;7.93;;;3.10;;
60169;SDS011;46042;49.444;6.862;2022-12-18T04:47:37;7.83;;;3.67;;
60169;SDS011;46042;49.444;6.862;2022-12-18T04:50:03;5.07;;;3.07;;
60169;SDS011;46042;49.444;6.862;2022-12-18T04:52:30;8.53;;;5.20;;
60169;SDS011;46042;49.444;6.862;2022-12-18T04:54:57;7.47;;;3.90;;
60169;SDS011;46042;49.444;6.862;2022-12-18T04:57:24;6.27;;;4.00;;
60169;SDS011;46042;49.444;6.862;2022-12-18T04:59:50;8.97;;;3.73;;
60169;SDS011;46042;49.444;6.862;2022-12-18T05:02:17;10.77;;;4.17;;
60169;SDS011;46042;49.444;6.862;2022-12-18T05:04:44;10.87;;;3.17;;
60169;SDS011;46042;49.444;6.862;2022-12-18T05:07:10;6.93;;;3.43;;
60169;SDS011;46042;49.444;6.862;2022-12-18T05:09:37;3.63;;;2.57;;
60169;SDS011;46042;49.444;6.862;2022-12-18T05:12:03;4.23;;;2.53;;
60169;SDS011;46042;49.444;6.862;2022-12-18T05:14:30;10.40;;;4.60;;
60169;SDS011;46042;49.444;6.862;2022-12-18T05:16:57;7.37;;;4.53;;
60169;SDS011;46042;49.444;6.862;2022-12-18T05:19:26;7.70;;;3.17;;
60169;SDS011;46042;49.444;6.862;2022-12-18T05:21:53;6.70;;;3.40;;
60169;SDS011;46042;49.444;6.862;2022-12-18T05:24:19;4.23;;;3.03;;
60169;SDS011;46042;49.444;6.862;2022-12-18T05:26:46;7.20;;;4.63;;
60169;SDS011;46042;49.444;6.862;2022-12-18T05:29:12;8.77;;;3.83;;
60169;SDS011;46042;49.444;6.862;2022-12-18T05:31:39;7.97;;;4.27;;
60169;SDS011;46042;49.444;6.862;2022-12-18T05:34:07;7.03;;;4.23;;
60169;SDS011;46042;49.444;6.862;2022-12-18T05:36:35;6.63;;;4.03;;
60169;SDS011;46042;49.444;6.862;2022-12-18T05:39:02;6.27;;;4.13;;
60169;SDS011;46042;49.444;6.862;2022-12-18T05:41:29;8.33;;;3.63;;
60169;SDS011;46042;49.444;6.862;2022-12-18T05:43:56;7.00;;;3.53;;
60169;SDS011;46042;49.444;6.862;2022-12-18T05:46:22;8.10;;;4.20;;
60169;SDS011;46042;49.444;6.862;2022-12-18T05:48:50;7.07;;;4.60;;
60169;SDS011;46042;49.444;6.862;2022-12-18T05:51:19;5.53;;;3.43;;
60169;SDS011;46042;49.444;6.862;2022-12-18T05:53:47;6.33;;;3.90;;
60169;SDS011;46042;49.444;6.862;2022-12-18T05:56:15;6.77;;;2.90;;
60169;SDS011;46042;49.444;6.862;2022-12-18T05:58:44;6.10;;;3.63;;
60169;SDS011;46042;49.444;6.862;2022-12-18T06:01:13;5.90;;;4.20;;
60169;SDS011;46042;49.444;6.862;2022-12-18T06:03:43;5.30;;;3.43;;
60169;SDS011;46042;49.444;6.862;2022-12-18T06:06:14;8.90;;;4.03;;
60169;SDS011;46042;49.444;6.862;2022-12-18T06:08:52;5.43;;;3.93;;
60169;SDS011;46042;49.444;6.862;2022-12-18T06:11:20;4.37;;;3.07;;
60169;SDS011;46042;49.444;6.862;2022-12-18T06:13:52;5.87;;;2.10;;
60169;SDS011;46042;49.444;6.862;2022-12-18T06:16:23;6.67;;;5.17;;
60169;SDS011;46042;49.444;6.862;2022-12-18T06:18:50;7.63;;;3.10;;
60169;SDS011;46042;49.444;6.862;2022-12-18T06:21:17;7.60;;;3.00;;
60169;SDS011;46042;49.444;6.862;2022-12-18T06:23:44;5.83;;;3.87;;
60169;SDS011;46042;49.444;6.862;2022-12-18T06:26:11;7.17;;;4.43;;
60169;SDS011;46042;49.444;6.862;2022-12-18T06:28:38;6.33;;;3.90;;
60169;SDS011;46042;49.444;6.862;2022-12-18T06:31:05;5.57;;;2.87;;
60169;SDS011;46042;49.444;6.862;2022-12-18T06:33:33;5.40;;;3.53;;
60169;SDS011;46042;49.444;6.862;2022-12-18T06:36:01;4.03;;;2.97;;
60169;SDS011;46042;49.444;6.862;2022-12-18T06:38:33;14.07;;;5.67;;
60169;SDS011;46042;49.444;6.862;2022-12-18T06:41:02;11.67;;;4.23;;
60169;SDS011;46042;49.444;6.862;2022-12-18T06:43:35;8.37;;;3.90;;
60169;SDS011;46042;49.444;6.862;2022-12-18T06:46:03;5.53;;;3.47;;
60169;SDS011;46042;49.444;6.862;2022-12-18T06:48:31;5.10;;;4.10;;
60169;SDS011;46042;49.444;6.862;2022-12-18T06:50:58;3.23;;;2.73;;
60169;SDS011;46042;49.444;6.862;2022-12-18T06:53:25;6.20;;;4.10;;
60169;SDS011;46042;49.444;6.862;2022-12-18T06:55:51;7.00;;;4.63;;
60169;SDS011;46042;49.444;6.862;2022-12-18T06:58:18;9.23;;;5.40;;
60169;SDS011;46042;49.444;6.862;2022-12-18T07:00:45;4.07;;;3.33;;
60169;SDS011;46042;49.444;6.862;2022-12-18T07:03:11;4.20;;;3.13;;
60169;SDS011;46042;49.444;6.862;2022-12-18T07:05:41;8.33;;;3.50;;
60169;SDS011;46042;49.444;6.862;2022-12-18T07:08:08;10.40;;;4.50;;
60169;SDS011;46042;49.444;6.862;2022-12-18T07:10:42;7.70;;;4.77;;
60169;SDS011;46042;49.444;6.862;2022-12-18T07:13:14;6.37;;;3.67;;
60169;SDS011;46042;49.444;6.862;2022-12-18T07:15:41;6.13;;;3.87;;
60169;SDS011;46042;49.444;6.862;2022-12-18T07:18:08;6.10;;;3.50;;
60169;SDS011;46042;49.444;6.862;2022-12-18T07:20:36;7.37;;;4.13;;
60169;SDS011;46042;49.444;6.862;2022-12-18T07:23:03;6.90;;;3.93;;
60169;SDS011;46042;49.444;6.862;2022-12-18T07:25:34;8.83;;;3.73;;
60169;SDS011;46042;49.444;6.862;2022-12-18T07:28:02;10.75;;;5.50;;
60169;SDS011;46042;49.444;6.862;2022-12-18T07:30:29;6.43;;;4.40;;
60169;SDS011;46042;49.444;6.862;2022-12-18T07:32:55;9.93;;;4.03;;
60169;SDS011;46042;49.444;6.862;2022-12-18T07:35:22;10.70;;;4.90;;
60169;SDS011;46042;49.444;6.862;2022-12-18T07:37:50;6.90;;;3.67;;
60169;SDS011;46042;49.444;6.862;2022-12-18T07:40:17;5.53;;;3.20;;
60169;SDS011;46042;49.444;6.862;2022-12-18T07:42:43;4.27;;;3.37;;
60169;SDS011;46042;49.444;6.862;2022-12-18T07:45:10;6.20;;;3.53;;
60169;SDS011;46042;49.444;6.862;2022-12-18T07:47:37;14.00;;;5.00;;
60169;SDS011;46042;49.444;6.862;2022-12-18T07:50:04;9.10;;;4.97;;
60169;SDS011;46042;49.444;6.862;2022-12-18T07:52:31;8.30;;;4.03;;
60169;SDS011;46042;49.444;6.862;2022-12-18T07:54:58;9.80;;;5.67;;
60169;SDS011;46042;49.444;6.862;2022-12-18T07:57:25;11.57;;;5.10;;
60169;SDS011;46042;49.444;6.862;2022-12-18T08:00:11;6.67;;;4.23;;
60169;SDS011;46042;49.444;6.862;2022-12-18T08:02:39;7.37;;;3.30;;
60169;SDS011;46042;49.444;6.862;2022-12-18T08:05:07;6.50;;;3.77;;
60169;SDS011;46042;49.444;6.862;2022-12-18T08:07:34;13.07;;;5.17;;
60169;SDS011;46042;49.444;6.862;2022-12-18T08:10:01;7.10;;;4.47;;
60169;SDS011;46042;49.444;6.862;2022-12-18T08:12:27;6.77;;;3.27;;
60169;SDS011;46042;49.444;6.862;2022-12-18T08:14:54;8.53;;;5.57;;
60169;SDS011;46042;49.444;6.862;2022-12-18T08:17:20;7.03;;;4.60;;
60169;SDS011;46042;49.444;6.862;2022-12-18T08:19:47;4.27;;;3.03;;
60169;SDS011;46042;49.444;6.862;2022-12-18T08:22:14;10.90;;;5.67;;
60169;SDS011;46042;49.444;6.862;2022-12-18T08:24:40;8.80;;;4.50;;
60169;SDS011;46042;49.444;6.862;2022-12-18T08:27:07;9.37;;;4.30;;
60169;SDS011;46042;49.444;6.862;2022-12-18T08:29:54;6.87;;;4.20;;
60169;SDS011;46042;49.444;6.862;2022-12-18T08:32:21;8.80;;;5.00;;
60169;SDS011;46042;49.444;6.862;2022-12-18T08:34:48;5.43;;;3.63;;
60169;SDS011;46042;49.444;6.862;2022-12-18T08:37:14;9.47;;;5.90;;
60169;SDS011;46042;49.444;6.862;2022-12-18T08:39:41;6.97;;;4.43;;
60169;SDS011;46042;49.444;6.862;2022-12-18T08:42:07;5.17;;;3.83;;
60169;SDS011;46042;49.444;6.862;2022-12-18T08:44:53;8.83;;;5.60;;
60169;SDS011;46042;49.444;6.862;2022-12-18T08:47:19;6.17;;;3.63;;
60169;SDS011;46042;49.444;6.862;2022-12-18T08:49:46;7.03;;;4.43;;
60169;SDS011;46042;49.444;6.862;2022-12-18T08:52:13;8.80;;;5.47;;
60169;SDS011;46042;49.444;6.862;2022-12-18T08:54:39;10.23;;;4.43;;
60169;SDS011;46042;49.444;6.862;2022-12-18T08:57:06;8.40;;;4.47;;
60169;SDS011;46042;49.444;6.862;2022-12-18T08:59:33;9.10;;;5.27;;
60169;SDS011;46042;49.444;6.862;2022-12-18T09:01:59;3.70;;;3.10;;
60169;SDS011;46042;49.444;6.862;2022-12-18T09:04:26;5.43;;;3.23;;
60169;SDS011;46042;49.444;6.862;2022-12-18T09:06:53;12.57;;;5.63;;
60169;SDS011;46042;49.444;6.862;2022-12-18T09:09:19;10.70;;;4.33;;
60169;SDS011;46042;49.444;6.862;2022-12-18T09:11:46;9.53;;;4.67;;
60169;SDS011;46042;49.444;6.862;2022-12-18T09:14:12;10.87;;;5.37;;
60169;SDS011;46042;49.444;6.862;2022-12-18T09:16:39;16.10;;;5.63;;
60169;SDS011;46042;49.444;6.862;2022-12-18T09:19:06;5.40;;;4.13;;
60169;SDS011;46042;49.444;6.862;2022-12-18T09:21:34;9.40;;;3.97;;
60169;SDS011;46042;49.444;6.862;2022-12-18T09:24:02;11.07;;;5.73;;
60169;SDS011;46042;49.444;6.862;2022-12-18T09:26:34;12.13;;;3.33;;
60169;SDS011;46042;49.444;6.862;2022-12-18T09:29:00;10.30;;;4.00;;
60169;SDS011;46042;49.444;6.862;2022-12-18T09:31:28;8.73;;;5.93;;
60169;SDS011;46042;49.444;6.862;2022-12-18T09:33:55;10.47;;;5.30;;
60169;SDS011;46042;49.444;6.862;2022-12-18T09:36:22;12.73;;;5.60;;
60169;SDS011;46042;49.444;6.862;2022-12-18T09:38:49;10.80;;;3.53;;
60169;SDS011;46042;49.444;6.862;2022-12-18T09:43:53;9.20;;;5.53;;
60169;SDS011;46042;49.444;6.862;2022-12-18T09:46:36;8.57;;;4.37;;
60169;SDS011;46042;49.444;6.862;2022-12-18T09:49:16;14.33;;;6.97;;
60169;SDS011;46042;49.444;6.862;2022-12-18T09:54:18;11.63;;;7.30;;
60169;SDS011;46042;49.444;6.862;2022-12-18T09:56:48;14.83;;;7.43;;
60169;SDS011;46042;49.444;6.862;2022-12-18T09:59:18;11.93;;;5.13;;
60169;SDS011;46042;49.444;6.862;2022-12-18T10:01:50;11.77;;;5.53;;
60169;SDS011;46042;49.444;6.862;2022-12-18T10:04:17;14.23;;;6.87;;
60169;SDS011;46042;49.444;6.862;2022-12-18T10:17:17;7.33;;;4.50;;
60169;SDS011;46042;49.444;6.862;2022-12-18T10:20:16;7.03;;;4.73;;
60169;SDS011;46042;49.444;6.862;2022-12-18T10:26:13;16.80;;;6.80;;
60169;SDS011;46042;49.444;6.862;2022-12-18T10:28:40;14.40;;;5.27;;
60169;SDS011;46042;49.444;6.862;2022-12-18T10:31:16;12.50;;;6.50;;
60169;SDS011;46042;49.444;6.862;2022-12-18T10:33:45;13.27;;;6.17;;
60169;SDS011;46042;49.444;6.862;2022-12-18T10:36:11;14.50;;;5.23;;
60169;SDS011;46042;49.444;6.862;2022-12-18T10:38:38;15.27;;;7.00;;
60169;SDS011;46042;49.444;6.862;2022-12-18T10:41:08;12.47;;;7.30;;
60169;SDS011;46042;49.444;6.862;2022-12-18T10:47:01;13.47;;;6.77;;
60169;SDS011;46042;49.444;6.862;2022-12-18T10:49:46;8.63;;;5.33;;
60169;SDS011;46042;49.444;6.862;2022-12-18T10:52:22;12.00;;;5.97;;
60169;SDS011;46042;49.444;6.862;2022-12-18T10:54:52;15.27;;;7.33;;
60169;SDS011;46042;49.444;6.862;2022-12-18T11:00:03;15.47;;;7.03;;
60169;SDS011;46042;49.444;6.862;2022-12-18T11:02:47;9.40;;;5.20;;
60169;SDS011;46042;49.444;6.862;2022-12-18T11:05:28;11.10;;;6.23;;
60169;SDS011;46042;49.444;6.862;2022-12-18T11:08:00;12.90;;;6.17;;
60169;SDS011;46042;49.444;6.862;2022-12-18T11:10:35;9.40;;;6.30;;
60169;SDS011;46042;49.444;6.862;2022-12-18T11:13:37;11.60;;;7.17;;
60169;SDS011;46042;49.444;6.862;2022-12-18T11:15:58;14.37;;;6.70;;
60169;SDS011;46042;49.444;6.862;2022-12-18T11:18:27;25.67;;;8.57;;
60169;SDS011;46042;49.444;6.862;2022-12-18T11:20:59;14.18;;;5.80;;
60169;SDS011;46042;49.444;6.862;2022-12-18T11:23:27;12.77;;;7.20;;
60169;SDS011;46042;49.444;6.862;2022-12-18T11:25:55;10.53;;;6.30;;
60169;SDS011;46042;49.444;6.862;2022-12-18T11:33:38;9.07;;;4.73;;
60169;SDS011;46042;49.444;6.862;2022-12-18T11:36:29;13.73;;;8.25;;
60169;SDS011;46042;49.444;6.862;2022-12-18T11:39:02;13.40;;;8.20;;
60169;SDS011;46042;49.444;6.862;2022-12-18T11:42:10;22.60;;;8.38;;
60169;SDS011;46042;49.444;6.862;2022-12-18T11:50:16;12.53;;;9.23;;
60169;SDS011;46042;49.444;6.862;2022-12-18T11:52:48;19.50;;;10.30;;
60169;SDS011;46042;49.444;6.862;2022-12-18T11:55:42;14.57;;;8.43;;
60169;SDS011;46042;49.444;6.862;2022-12-18T12:04:13;19.23;;;9.35;;
60169;SDS011;46042;49.444;6.862;2022-12-18T12:13:03;13.23;;;8.63;;
60169;SDS011;46042;49.444;6.862;2022-12-18T12:26:45;16.40;;;8.87;;
60169;SDS011;46042;49.444;6.862;2022-12-18T12:31:54;15.20;;;9.93;;
60169;SDS011;46042;49.444;6.862;2022-12-18T12:40:18;16.83;;;9.30;;
60169;SDS011;46042;49.444;6.862;2022-12-18T12:43:22;19.20;;;8.97;;
60169;SDS011;46042;49.444;6.862;2022-12-18T12:45:55;18.97;;;9.23;;
60169;SDS011;46042;49.444;6.862;2022-12-18T12:51:00;14.43;;;8.10;;
60169;SDS011;46042;49.444;6.862;2022-12-18T12:56:04;16.97;;;8.73;;
60169;SDS011;46042;49.444;6.862;2022-12-18T12:58:38;15.53;;;8.70;;
60169;SDS011;46042;49.444;6.862;2022-12-18T13:01:25;21.80;;;11.07;;
60169;SDS011;46042;49.444;6.862;2022-12-18T13:07:26;21.37;;;11.13;;
60169;SDS011;46042;49.444;6.862;2022-12-18T13:16:02;21.93;;;10.13;;
60169;SDS011;46042;49.444;6.862;2022-12-18T13:18:33;18.93;;;9.27;;
60169;SDS011;46042;49.444;6.862;2022-12-18T13:21:02;24.67;;;12.10;;
60169;SDS011;46042;49.444;6.862;2022-12-18T13:23:38;20.00;;;9.53;;
60169;SDS011;46042;49.444;6.862;2022-12-18T13:36:56;14.93;;;6.93;;
60169;SDS011;46042;49.444;6.862;2022-12-18T13:39:43;20.77;;;9.97;;
60169;SDS011;46042;49.444;6.862;2022-12-18T13:44:56;17.60;;;7.60;;
60169;SDS011;46042;49.444;6.862;2022-12-18T13:47:27;13.43;;;8.43;;
60169;SDS011;46042;49.444;6.862;2022-12-18T13:49:59;18.60;;;10.20;;
60169;SDS011;46042;49.444;6.862;2022-12-18T13:52:28;15.90;;;9.03;;
60169;SDS011;46042;49.444;6.862;2022-12-18T13:55:00;16.13;;;9.30;;
60169;SDS011;46042;49.444;6.862;2022-12-18T13:57:30;19.97;;;8.63;;
60169;SDS011;46042;49.444;6.862;2022-12-18T14:00:14;19.57;;;9.97;;
60169;SDS011;46042;49.444;6.862;2022-12-18T14:02:49;15.90;;;9.63;;
60169;SDS011;46042;49.444;6.862;2022-12-18T14:05:27;17.80;;;10.93;;
60169;SDS011;46042;49.444;6.862;2022-12-18T14:07:59;16.03;;;9.47;;
60169;SDS011;46042;49.444;6.862;2022-12-18T14:10:32;17.47;;;8.07;;
60169;SDS011;46042;49.444;6.862;2022-12-18T14:13:23;18.20;;;10.00;;
60169;SDS011;46042;49.444;6.862;2022-12-18T14:15:54;14.20;;;8.73;;
60169;SDS011;46042;49.444;6.862;2022-12-18T14:21:30;18.43;;;8.03;;
60169;SDS011;46042;49.444;6.862;2022-12-18T14:24:12;20.23;;;9.60;;
60169;SDS011;46042;49.444;6.862;2022-12-18T14:26:44;18.70;;;10.07;;
60169;SDS011;46042;49.444;6.862;2022-12-18T14:29:26;23.70;;;10.13;;
60169;SDS011;46042;49.444;6.862;2022-12-18T14:32:05;14.50;;;7.53;;
60169;SDS011;46042;49.444;6.862;2022-12-18T14:34:37;17.00;;;8.83;;
60169;SDS011;46042;49.444;6.862;2022-12-18T14:37:03;13.83;;;8.47;;
60169;SDS011;46042;49.444;6.862;2022-12-18T14:39:30;21.70;;;8.90;;
60169;SDS011;46042;49.444;6.862;2022-12-18T14:41:57;18.37;;;8.37;;
60169;SDS011;46042;49.444;6.862;2022-12-18T14:44:24;22.00;;;10.73;;
60169;SDS011;46042;49.444;6.862;2022-12-18T14:46:56;22.57;;;10.90;;
60169;SDS011;46042;49.444;6.862;2022-12-18T14:49:33;16.60;;;9.03;;
60169;SDS011;46042;49.444;6.862;2022-12-18T14:52:05;18.20;;;10.13;;
60169;SDS011;46042;49.444;6.862;2022-12-18T14:54:45;16.97;;;8.83;;
60169;SDS011;46042;49.444;6.862;2022-12-18T14:57:18;18.23;;;9.20;;
60169;SDS011;46042;49.444;6.862;2022-12-18T14:59:48;16.97;;;9.17;;
60169;SDS011;46042;49.444;6.862;2022-12-18T15:02:23;19.20;;;10.47;;
60169;SDS011;46042;49.444;6.862;2022-12-18T15:05:04;18.67;;;10.03;;
60169;SDS011;46042;49.444;6.862;2022-12-18T15:07:46;25.37;;;11.80;;
60169;SDS011;46042;49.444;6.862;2022-12-18T15:20:42;20.90;;;10.67;;
60169;SDS011;46042;49.444;6.862;2022-12-18T15:23:24;21.20;;;9.70;;
60169;SDS011;46042;49.444;6.862;2022-12-18T15:28:36;16.93;;;9.63;;
60169;SDS011;46042;49.444;6.862;2022-12-18T15:33:36;19.47;;;9.93;;
60169;SDS011;46042;49.444;6.862;2022-12-18T15:36:10;26.00;;;12.07;;
60169;SDS011;46042;49.444;6.862;2022-12-18T15:38:38;18.03;;;8.17;;
60169;SDS011;46042;49.444;6.862;2022-12-18T15:41:04;17.67;;;9.50;;
60169;SDS011;46042;49.444;6.862;2022-12-18T15:43:39;32.30;;;13.10;;
60169;SDS011;46042;49.444;6.862;2022-12-18T15:46:08;18.77;;;9.57;;
60169;SDS011;46042;49.444;6.862;2022-12-18T15:48:45;23.20;;;9.03;;
60169;SDS011;46042;49.444;6.862;2022-12-18T15:51:17;16.97;;;9.30;;
60169;SDS011;46042;49.444;6.862;2022-12-18T15:53:50;24.50;;;10.57;;
60169;SDS011;46042;49.444;6.862;2022-12-18T15:56:20;22.67;;;10.90;;
60169;SDS011;46042;49.444;6.862;2022-12-18T15:59:10;28.80;;;10.43;;
60169;SDS011;46042;49.444;6.862;2022-12-18T16:01:38;17.27;;;8.53;;
60169;SDS011;46042;49.444;6.862;2022-12-18T16:04:10;15.97;;;9.50;;
60169;SDS011;46042;49.444;6.862;2022-12-18T16:06:38;14.10;;;9.43;;
60169;SDS011;46042;49.444;6.862;2022-12-18T16:09:24;18.57;;;10.30;;
60169;SDS011;46042;49.444;6.862;2022-12-18T16:11:51;17.33;;;8.23;;
60169;SDS011;46042;49.444;6.862;2022-12-18T16:16:51;23.20;;;13.23;;
60169;SDS011;46042;49.444;6.862;2022-12-18T16:19:22;16.37;;;9.60;;
60169;SDS011;46042;49.444;6.862;2022-12-18T16:21:50;22.07;;;10.33;;
60169;SDS011;46042;49.444;6.862;2022-12-18T16:24:22;17.27;;;8.60;;
60169;SDS011;46042;49.444;6.862;2022-12-18T16:26:51;16.90;;;10.13;;
60169;SDS011;46042;49.444;6.862;2022-12-18T16:29:19;20.87;;;9.67;;
60169;SDS011;46042;49.444;6.862;2022-12-18T16:31:50;17.23;;;9.90;;
60169;SDS011;46042;49.444;6.862;2022-12-18T16:34:28;21.10;;;9.77;;
60169;SDS011;46042;49.444;6.862;2022-12-18T16:36:59;23.17;;;9.88;;
60169;SDS011;46042;49.444;6.862;2022-12-18T16:39:31;18.27;;;8.10;;
60169;SDS011;46042;49.444;6.862;2022-12-18T16:42:01;15.73;;;8.00;;
60169;SDS011;46042;49.444;6.862;2022-12-18T16:44:31;14.45;;;8.38;;
60169;SDS011;46042;49.444;6.862;2022-12-18T16:46:59;16.33;;;9.87;;
60169;SDS011;46042;49.444;6.862;2022-12-18T16:49:28;16.57;;;7.77;;
60169;SDS011;46042;49.444;6.862;2022-12-18T16:51:55;16.63;;;9.07;;
60169;SDS011;46042;49.444;6.862;2022-12-18T16:54:22;22.50;;;10.33;;
60169;SDS011;46042;49.444;6.862;2022-12-18T16:56:50;16.23;;;8.17;;
60169;SDS011;46042;49.444;6.862;2022-12-18T16:59:17;17.27;;;9.57;;
60169;SDS011;46042;49.444;6.862;2022-12-18T17:01:45;17.20;;;9.73;;
60169;SDS011;46042;49.444;6.862;2022-12-18T17:04:12;13.87;;;9.53;;
60169;SDS011;46042;49.444;6.862;2022-12-18T17:06:40;18.63;;;10.87;;
60169;SDS011;46042;49.444;6.862;2022-12-18T17:09:10;16.37;;;9.63;;
60169;SDS011;46042;49.444;6.862;2022-12-18T17:11:39;19.17;;;9.33;;
60169;SDS011;46042;49.444;6.862;2022-12-18T17:14:07;18.70;;;10.13;;
60169;SDS011;46042;49.444;6.862;2022-12-18T17:16:35;19.63;;;10.60;;
60169;SDS011;46042;49.444;6.862;2022-12-18T17:19:02;19.60;;;9.67;;
60169;SDS011;46042;49.444;6.862;2022-12-18T17:21:29;19.87;;;9.63;;
60169;SDS011;46042;49.444;6.862;2022-12-18T17:23:58;12.93;;;8.17;;
60169;SDS011;46042;49.444;6.862;2022-12-18T17:26:26;15.33;;;9.10;;
60169;SDS011;46042;49.444;6.862;2022-12-18T17:28:57;19.07;;;10.33;;